Queensport, Canada
Current Conditions -  °F | °C
As of 3:00 PM on Thursday 18 Dec 2014 (Local Time) from CYPD Reporting Station
Overcast Overcast  
Wind Chill: 37°   Ceiling: 2000
Heat Index: 43°   Visibility: 9mi
Dew Point: 37°   Wind: 12mph
Humidity: 81%   Direction: 200°SSW
Pressure: 29.43"   Gusts: NA
Location:  45.35°N, 61.25°W
Report Text: CYPD 181900Z AUTO 20010KT 160V230 9SM OVC020 06/03 A2943 RMK SLP970
Loading
Personal Weather Stations






























Interactive Weather Map New forecast layout! Learn more

10-Day Weather Forecast

Advertisements
Track Severe Weather on mobile